Time;durP1;ratioP1;P1;durP2;ratioP2;P2;SDS_P1;SDS_P2;PMS_P1;PMS_P2;Temp;Humidity;BMP_temperature;BMP_pressure;BME280_temperature;BME280_humidity;BME280_pressure;Samples;Min_cycle;Max_cycle;Signal;HPM_P1;HPM_P2
2021/08/16 00:01:00;;;;;;;7.47;3.08;;;;;;;;;;5021792;28;20218;-56
2021/08/16 00:03:25;;;;;;;4.35;3.28;;;;;;;;;;5021162;28;20194;-57
2021/08/16 00:05:50;;;;;;;6.63;2.60;;;;;;;;;;5025567;28;20174;-56
2021/08/16 00:08:15;;;;;;;4.90;3.00;;;;;;;;;;5022307;28;20558;-56
2021/08/16 00:10:41;;;;;;;6.43;3.22;;;;;;;;;;5027636;28;20200;-57
2021/08/16 00:13:06;;;;;;;4.88;2.97;;;;;;;;;;5011451;28;20563;-57
2021/08/16 00:15:31;;;;;;;4.47;2.40;;;;;;;;;;5023542;28;20189;-56
2021/08/16 00:17:58;;;;;;;4.50;2.45;;;;;;;;;;5018740;28;20210;-56
2021/08/16 00:20:23;;;;;;;3.33;2.65;;;;;;;;;;5023542;28;20211;-56
2021/08/16 00:22:48;;;;;;;6.55;2.70;;;;;;;;;;5023426;28;20234;-55
2021/08/16 00:25:13;;;;;;;7.70;2.90;;;;;;;;;;5029746;28;20213;-56
2021/08/16 00:27:38;;;;;;;7.95;2.83;;;;;;;;;;5025718;28;20175;-56
2021/08/16 00:30:04;;;;;;;3.17;2.83;;;;;;;;;;5020848;28;20290;-56
2021/08/16 00:32:29;;;;;;;4.05;2.80;;;;;;;;;;5021140;28;20246;-57
2021/08/16 00:34:55;;;;;;;4.47;3.00;;;;;;;;;;5024883;28;20202;-54
2021/08/16 00:37:20;;;;;;;3.40;2.60;;;;;;;;;;5020159;28;20182;-56
2021/08/16 00:39:45;;;;;;;4.30;2.88;;;;;;;;;;5014964;28;20211;-57
2021/08/16 00:42:12;;;;;;;8.05;3.10;;;;;;;;;;5019554;28;20203;-56
2021/08/16 00:44:38;;;;;;;4.53;2.80;;;;;;;;;;5026515;28;20185;-56
2021/08/16 00:47:03;;;;;;;4.75;2.80;;;;;;;;;;5027031;28;20178;-56
2021/08/16 00:49:28;;;;;;;3.53;2.80;;;;;;;;;;5022823;28;20206;-56
2021/08/16 00:51:54;;;;;;;5.30;3.20;;;;;;;;;;5026991;28;20194;-56
2021/08/16 00:54:19;;;;;;;4.32;3.15;;;;;;;;;;5026244;28;20585;-56
2021/08/16 00:56:44;;;;;;;5.32;2.63;;;;;;;;;;5028972;28;20666;-57
2021/08/16 00:59:10;;;;;;;4.25;2.85;;;;;;;;;;5025153;28;20187;-56
2021/08/16 01:01:36;;;;;;;4.05;3.28;;;;;;;;;;5018788;28;20202;-56
2021/08/16 01:04:01;;;;;;;6.20;3.28;;;;;;;;;;5020179;28;20213;-57
2021/08/16 01:06:26;;;;;;;5.30;2.90;;;;;;;;;;5015535;28;20299;-56
2021/08/16 01:08:51;;;;;;;6.82;2.78;;;;;;;;;;5017074;28;20179;-54
2021/08/16 01:11:17;;;;;;;7.72;3.35;;;;;;;;;;5012586;28;20200;-56
2021/08/16 01:13:43;;;;;;;8.35;3.40;;;;;;;;;;5024208;28;20194;-56
2021/08/16 01:16:09;;;;;;;4.40;2.80;;;;;;;;;;5022925;28;20187;-55
2021/08/16 01:18:34;;;;;;;5.28;3.17;;;;;;;;;;5019732;28;20195;-56
2021/08/16 01:21:03;;;;;;;8.20;3.58;;;;;;;;;;5027549;28;20207;-57
2021/08/16 01:23:28;;;;;;;3.97;3.28;;;;;;;;;;5021453;28;20206;-58
2021/08/16 01:25:53;;;;;;;3.40;2.67;;;;;;;;;;5027297;28;20189;-56
2021/08/16 01:28:19;;;;;;;5.80;3.22;;;;;;;;;;5022577;28;20191;-56
2021/08/16 01:30:45;;;;;;;9.88;3.65;;;;;;;;;;5011245;28;20669;-57
2021/08/16 01:33:10;;;;;;;4.32;3.00;;;;;;;;;;5012347;28;20187;-57
2021/08/16 01:35:35;;;;;;;3.85;2.72;;;;;;;;;;5023491;28;20537;-57
2021/08/16 01:38:01;;;;;;;5.07;3.00;;;;;;;;;;5022222;28;20194;-57
2021/08/16 01:40:26;;;;;;;4.43;3.05;;;;;;;;;;5019559;28;20211;-57
2021/08/16 01:42:51;;;;;;;5.85;3.03;;;;;;;;;;5013810;28;20678;-57
2021/08/16 01:45:16;;;;;;;5.05;2.92;;;;;;;;;;5011940;28;20183;-56
2021/08/16 01:47:42;;;;;;;6.88;2.92;;;;;;;;;;5018202;28;20196;-55
2021/08/16 01:50:07;;;;;;;9.63;3.22;;;;;;;;;;5020512;28;21032;-56
2021/08/16 01:52:32;;;;;;;5.90;3.03;;;;;;;;;;5019985;28;20194;-57
2021/08/16 01:54:58;;;;;;;3.85;3.22;;;;;;;;;;5015793;28;20186;-56
2021/08/16 01:57:23;;;;;;;5.22;3.38;;;;;;;;;;5013018;28;20207;-54
2021/08/16 01:59:48;;;;;;;4.50;3.10;;;;;;;;;;5013173;28;20211;-57
2021/08/16 02:02:13;;;;;;;6.43;3.13;;;;;;;;;;5019433;28;20194;-56
2021/08/16 02:04:38;;;;;;;6.23;3.53;;;;;;;;;;5019627;28;20241;-56
2021/08/16 02:07:04;;;;;;;7.73;3.63;;;;;;;;;;5024793;28;20195;-56
2021/08/16 02:09:29;;;;;;;4.78;3.38;;;;;;;;;;5015364;28;20560;-55
2021/08/16 02:11:54;;;;;;;7.67;3.40;;;;;;;;;;5013786;28;20241;-57
2021/08/16 02:14:19;;;;;;;5.20;3.05;;;;;;;;;;5014961;28;20187;-56
2021/08/16 02:16:45;;;;;;;4.40;3.08;;;;;;;;;;5018207;28;20709;-55
2021/08/16 02:19:10;;;;;;;4.40;2.92;;;;;;;;;;5019704;28;20183;-58
2021/08/16 02:21:35;;;;;;;3.85;2.47;;;;;;;;;;5021908;28;20202;-56
2021/08/16 02:24:00;;;;;;;3.65;2.15;;;;;;;;;;5016466;28;20666;-57
2021/08/16 02:26:26;;;;;;;2.72;2.30;;;;;;;;;;5026901;28;20179;-56
2021/08/16 02:28:51;;;;;;;5.93;2.42;;;;;;;;;;5009902;28;20176;-57
2021/08/16 02:31:20;;;;;;;3.80;2.15;;;;;;;;;;5025835;28;20210;-56
2021/08/16 02:33:47;;;;;;;5.47;2.60;;;;;;;;;;5015036;28;20191;-57
2021/08/16 02:36:12;;;;;;;5.78;2.50;;;;;;;;;;5025476;28;20190;-56
2021/08/16 02:38:37;;;;;;;3.88;2.80;;;;;;;;;;5016159;28;20229;-56
2021/08/16 02:41:02;;;;;;;5.73;2.40;;;;;;;;;;5024316;28;20218;-56
2021/08/16 02:43:28;;;;;;;5.22;2.40;;;;;;;;;;5023302;28;20454;-57
2021/08/16 02:45:54;;;;;;;8.27;2.55;;;;;;;;;;5023080;28;20190;-56
2021/08/16 02:48:19;;;;;;;4.53;2.63;;;;;;;;;;5027032;28;20184;-56
2021/08/16 02:50:45;;;;;;;7.32;2.78;;;;;;;;;;5026640;28;20218;-56
2021/08/16 02:53:10;;;;;;;4.95;2.58;;;;;;;;;;5027066;28;20186;-56
2021/08/16 02:55:35;;;;;;;5.25;2.72;;;;;;;;;;5017049;28;20253;-56
2021/08/16 02:58:00;;;;;;;9.70;2.70;;;;;;;;;;5033456;28;20283;-56
2021/08/16 03:00:26;;;;;;;4.28;2.58;;;;;;;;;;5028059;28;20233;-56
2021/08/16 03:02:51;;;;;;;6.13;2.72;;;;;;;;;;5027466;28;20285;-57
2021/08/16 03:05:16;;;;;;;3.67;2.47;;;;;;;;;;5021833;23;20617;-56
2021/08/16 03:07:41;;;;;;;3.53;2.65;;;;;;;;;;4983887;28;20213;-57
2021/08/16 03:10:07;;;;;;;5.57;2.75;;;;;;;;;;4989016;28;20180;-57
2021/08/16 03:12:33;;;;;;;5.88;2.95;;;;;;;;;;4993171;28;20195;-56
2021/08/16 03:14:58;;;;;;;6.40;2.40;;;;;;;;;;4976428;28;20287;-56
2021/08/16 03:17:23;;;;;;;5.00;3.00;;;;;;;;;;4988743;28;20190;-56
2021/08/16 03:19:48;;;;;;;11.05;3.22;;;;;;;;;;4991183;28;20680;-57
2021/08/16 03:22:14;;;;;;;4.95;2.90;;;;;;;;;;4997322;28;20303;-56
2021/08/16 03:24:39;;;;;;;4.78;2.78;;;;;;;;;;4991577;28;23977;-56
2021/08/16 03:27:04;;;;;;;4.82;2.85;;;;;;;;;;4977886;28;20169;-56
2021/08/16 03:29:29;;;;;;;5.85;2.65;;;;;;;;;;4984740;28;20215;-56
2021/08/16 03:31:54;;;;;;;5.20;2.77;;;;;;;;;;4994645;28;20607;-57
2021/08/16 03:34:20;;;;;;;7.88;3.13;;;;;;;;;;5000153;28;20433;-55
2021/08/16 03:36:45;;;;;;;4.18;2.70;;;;;;;;;;4998728;28;20218;-55
2021/08/16 03:39:10;;;;;;;6.07;3.22;;;;;;;;;;4993036;28;20200;-57
2021/08/16 03:41:36;;;;;;;5.70;3.40;;;;;;;;;;4985834;28;20542;-57
2021/08/16 03:44:01;;;;;;;4.53;3.10;;;;;;;;;;4979490;28;20176;-56
2021/08/16 03:46:26;;;;;;;6.32;3.40;;;;;;;;;;4975094;28;20196;-56
2021/08/16 03:48:52;;;;;;;5.68;3.10;;;;;;;;;;4992160;28;20187;-56
2021/08/16 03:51:17;;;;;;;5.15;3.10;;;;;;;;;;4993156;28;20199;-57
2021/08/16 03:53:42;;;;;;;7.38;3.55;;;;;;;;;;4986476;28;20243;-56
2021/08/16 03:56:10;;;;;;;7.28;4.13;;;;;;;;;;4991062;28;20200;-57
2021/08/16 03:58:35;;;;;;;8.98;4.05;;;;;;;;;;4974382;28;20256;-56
2021/08/16 04:01:01;;;;;;;6.85;4.50;;;;;;;;;;4978467;28;20283;-57
2021/08/16 04:03:26;;;;;;;6.43;3.80;;;;;;;;;;4988172;28;20238;-57
2021/08/16 04:05:51;;;;;;;8.95;4.50;;;;;;;;;;4994120;28;20247;-57
2021/08/16 04:08:16;;;;;;;5.72;4.50;;;;;;;;;;4991788;28;20180;-57
2021/08/16 04:10:41;;;;;;;10.40;4.95;;;;;;;;;;4975901;28;20180;-56
2021/08/16 04:13:06;;;;;;;7.10;5.30;;;;;;;;;;4986398;28;20700;-55
2021/08/16 04:15:32;;;;;;;9.30;4.80;;;;;;;;;;4986126;28;20207;-55
2021/08/16 04:17:57;;;;;;;12.10;4.95;;;;;;;;;;4987447;28;20250;-56
2021/08/16 04:20:22;;;;;;;7.22;4.70;;;;;;;;;;4990431;28;20184;-56
2021/08/16 04:22:48;;;;;;;7.03;4.63;;;;;;;;;;4990547;28;20207;-55
2021/08/16 04:25:15;;;;;;;6.93;4.45;;;;;;;;;;4985502;28;20263;-55
2021/08/16 04:27:41;;;;;;;10.30;4.85;;;;;;;;;;4983701;28;20192;-56
2021/08/16 04:30:07;;;;;;;6.88;4.63;;;;;;;;;;4990265;28;20184;-56
2021/08/16 04:32:32;;;;;;;6.60;4.38;;;;;;;;;;4987703;28;20306;-56
2021/08/16 04:34:57;;;;;;;5.47;4.55;;;;;;;;;;4990642;28;20218;-56
2021/08/16 04:37:22;;;;;;;6.88;4.90;;;;;;;;;;4986371;28;20219;-56
2021/08/16 04:39:48;;;;;;;7.68;4.63;;;;;;;;;;4986247;28;20526;-56
2021/08/16 04:42:13;;;;;;;8.55;4.90;;;;;;;;;;4990051;28;20208;-56
2021/08/16 04:44:38;;;;;;;6.72;4.50;;;;;;;;;;4987644;28;20192;-57
2021/08/16 04:47:03;;;;;;;9.00;4.78;;;;;;;;;;4986592;28;20250;-56
2021/08/16 04:49:29;;;;;;;10.75;5.03;;;;;;;;;;4987239;28;20186;-56
2021/08/16 04:51:54;;;;;;;9.45;4.38;;;;;;;;;;4989060;28;20198;-55
2021/08/16 04:54:19;;;;;;;12.05;5.07;;;;;;;;;;4988981;28;20192;-56
2021/08/16 04:56:44;;;;;;;6.65;4.13;;;;;;;;;;4986127;28;20208;-56
2021/08/16 04:59:09;;;;;;;6.82;4.60;;;;;;;;;;4985446;28;20592;-56
2021/08/16 05:01:36;;;;;;;8.75;4.78;;;;;;;;;;4988688;28;20260;-56
2021/08/16 05:04:01;;;;;;;6.30;4.93;;;;;;;;;;4988696;28;20207;-56
2021/08/16 05:06:32;;;;;;;8.75;5.18;;;;;;;;;;4989661;28;20212;-56
2021/08/16 05:08:58;;;;;;;5.80;4.30;;;;;;;;;;4988977;28;20235;-56
2021/08/16 05:11:23;;;;;;;7.60;4.72;;;;;;;;;;4988867;28;20730;-55
2021/08/16 05:13:49;;;;;;;8.75;4.80;;;;;;;;;;4987487;28;20187;-56
2021/08/16 05:16:18;;;;;;;9.70;4.85;;;;;;;;;;4990351;28;20251;-56
2021/08/16 05:18:44;;;;;;;7.93;4.40;;;;;;;;;;4988543;28;20202;-55
2021/08/16 05:21:09;;;;;;;7.68;4.75;;;;;;;;;;4984546;28;20755;-56
2021/08/16 05:23:34;;;;;;;8.40;5.13;;;;;;;;;;4995074;28;20219;-56
2021/08/16 05:25:59;;;;;;;6.32;4.70;;;;;;;;;;4989200;28;20199;-53
2021/08/16 05:28:25;;;;;;;8.48;4.97;;;;;;;;;;4985241;28;20176;-55
2021/08/16 05:30:50;;;;;;;6.22;4.93;;;;;;;;;;4986528;28;20726;-55
2021/08/16 05:33:15;;;;;;;6.10;5.40;;;;;;;;;;4987682;28;20195;-56
2021/08/16 05:35:40;;;;;;;7.47;5.50;;;;;;;;;;4991238;28;20215;-56
2021/08/16 05:38:05;;;;;;;7.70;5.43;;;;;;;;;;4985052;28;20193;-56
2021/08/16 05:40:31;;;;;;;6.47;5.65;;;;;;;;;;4980762;28;20315;-55
2021/08/16 05:42:56;;;;;;;7.50;5.50;;;;;;;;;;4977317;28;20217;-56
2021/08/16 05:45:21;;;;;;;8.38;5.50;;;;;;;;;;4974560;28;20207;-56
2021/08/16 05:47:47;;;;;;;7.13;5.40;;;;;;;;;;4982498;28;20644;-55
2021/08/16 05:50:12;;;;;;;6.50;5.13;;;;;;;;;;4982473;28;20238;-56
2021/08/16 05:52:38;;;;;;;6.63;5.30;;;;;;;;;;4982191;28;20215;-55
2021/08/16 05:55:04;;;;;;;7.47;5.25;;;;;;;;;;4975999;28;20219;-55
2021/08/16 05:57:29;;;;;;;6.93;5.47;;;;;;;;;;4981381;28;20658;-56
2021/08/16 05:59:54;;;;;;;10.70;5.38;;;;;;;;;;4980557;28;20580;-57
2021/08/16 06:02:19;;;;;;;5.75;4.97;;;;;;;;;;4985570;28;20781;-57
2021/08/16 06:04:45;;;;;;;8.25;5.22;;;;;;;;;;4972072;28;20188;-56
2021/08/16 06:07:10;;;;;;;10.13;5.25;;;;;;;;;;4969630;28;20180;-57
2021/08/16 06:09:35;;;;;;;8.35;4.50;;;;;;;;;;4994162;28;20599;-56
2021/08/16 06:12:01;;;;;;;5.90;4.05;;;;;;;;;;4989923;28;20192;-56
2021/08/16 06:14:29;;;;;;;9.18;4.07;;;;;;;;;;4975557;28;20316;-54
2021/08/16 06:16:54;;;;;;;7.70;4.20;;;;;;;;;;4978749;28;20199;-56
2021/08/16 06:19:23;;;;;;;5.28;3.83;;;;;;;;;;4975871;28;20203;-56
2021/08/16 06:21:48;;;;;;;9.38;4.40;;;;;;;;;;4978827;28;20656;-56
2021/08/16 06:24:13;;;;;;;7.03;3.70;;;;;;;;;;4975998;28;20208;-56
2021/08/16 06:26:39;;;;;;;13.18;3.47;;;;;;;;;;4981484;28;20203;-55
2021/08/16 06:29:05;;;;;;;6.95;3.90;;;;;;;;;;4975173;28;20184;-56
2021/08/16 06:31:30;;;;;;;4.90;3.70;;;;;;;;;;4977152;28;20208;-57
2021/08/16 06:33:55;;;;;;;4.88;3.60;;;;;;;;;;4980218;28;20185;-54
2021/08/16 06:36:21;;;;;;;4.60;3.28;;;;;;;;;;4979602;28;20203;-57
2021/08/16 06:38:48;;;;;;;8.45;3.85;;;;;;;;;;4980406;28;20181;-56
2021/08/16 06:41:14;;;;;;;5.47;3.60;;;;;;;;;;4987309;28;20588;-56
2021/08/16 06:43:39;;;;;;;5.10;3.08;;;;;;;;;;4983827;28;20255;-56
2021/08/16 06:46:04;;;;;;;5.63;3.50;;;;;;;;;;4973859;28;20769;-55
2021/08/16 06:48:29;;;;;;;13.80;3.05;;;;;;;;;;4975837;28;20188;-55
2021/08/16 06:50:54;;;;;;;4.10;2.85;;;;;;;;;;4980829;28;20185;-56
2021/08/16 06:53:20;;;;;;;6.03;2.90;;;;;;;;;;4983869;28;20427;-57
2021/08/16 06:55:47;;;;;;;5.65;3.15;;;;;;;;;;4981651;28;20204;-55
2021/08/16 06:58:12;;;;;;;5.72;3.47;;;;;;;;;;4983511;28;20180;-56
2021/08/16 07:00:41;;;;;;;5.45;3.13;;;;;;;;;;4977265;28;20191;-56
2021/08/16 07:03:06;;;;;;;5.38;3.35;;;;;;;;;;4975219;28;20228;-56
2021/08/16 07:05:31;;;;;;;8.85;3.30;;;;;;;;;;4976313;28;20236;-56
2021/08/16 07:07:57;;;;;;;6.67;3.07;;;;;;;;;;4983907;28;20287;-56
2021/08/16 07:10:22;;;;;;;6.03;3.00;;;;;;;;;;4983487;28;20838;-56
2021/08/16 07:12:47;;;;;;;13.20;3.73;;;;;;;;;;4978588;28;20567;-56
2021/08/16 07:15:13;;;;;;;6.93;3.20;;;;;;;;;;4984596;28;20451;-56
2021/08/16 07:17:39;;;;;;;5.30;2.90;;;;;;;;;;4975586;28;20466;-56
2021/08/16 07:20:04;;;;;;;5.78;2.85;;;;;;;;;;4977553;28;20189;-56
2021/08/16 07:22:30;;;;;;;4.85;2.90;;;;;;;;;;4976851;28;20288;-56
2021/08/16 07:24:55;;;;;;;7.30;3.03;;;;;;;;;;4975523;28;20193;-56
2021/08/16 07:27:20;;;;;;;6.93;3.23;;;;;;;;;;4972687;28;20179;-57
2021/08/16 07:29:46;;;;;;;5.93;3.40;;;;;;;;;;4980596;28;20769;-56
2021/08/16 07:32:11;;;;;;;11.80;3.30;;;;;;;;;;4981577;28;20423;-56
2021/08/16 07:34:37;;;;;;;6.45;3.47;;;;;;;;;;4989911;28;20199;-57
2021/08/16 07:37:04;;;;;;;9.25;3.38;;;;;;;;;;4985091;28;20184;-56
2021/08/16 07:39:30;;;;;;;3.35;2.40;;;;;;;;;;4987608;28;20921;-56
2021/08/16 07:41:55;;;;;;;5.00;3.10;;;;;;;;;;4989343;28;20191;-55
2021/08/16 07:44:20;;;;;;;3.90;2.50;;;;;;;;;;4988851;28;20695;-55
2021/08/16 07:46:46;;;;;;;5.82;2.67;;;;;;;;;;4988562;28;20215;-56
2021/08/16 07:49:11;;;;;;;8.27;2.78;;;;;;;;;;4987371;28;20720;-57
2021/08/16 07:51:36;;;;;;;5.70;3.00;;;;;;;;;;4988688;28;20235;-56
2021/08/16 07:54:01;;;;;;;6.77;3.23;;;;;;;;;;4981612;28;20176;-56
2021/08/16 07:56:26;;;;;;;10.20;3.00;;;;;;;;;;4984183;28;20459;-56
2021/08/16 07:58:51;;;;;;;8.17;3.00;;;;;;;;;;4987806;28;20217;-56
2021/08/16 08:01:17;;;;;;;6.03;2.90;;;;;;;;;;5008609;28;20486;-56
2021/08/16 08:03:42;;;;;;;8.65;3.28;;;;;;;;;;4985958;28;20266;-56
2021/08/16 08:06:07;;;;;;;6.63;3.17;;;;;;;;;;4988937;28;20211;-56
2021/08/16 08:08:33;;;;;;;9.70;3.33;;;;;;;;;;4991061;28;20192;-57
2021/08/16 08:10:58;;;;;;;10.15;3.30;;;;;;;;;;4987597;28;20490;-58
2021/08/16 08:13:23;;;;;;;7.33;3.30;;;;;;;;;;4986995;28;21281;-56
2021/08/16 08:15:48;;;;;;;6.85;3.45;;;;;;;;;;4986130;28;20451;-57
2021/08/16 08:18:13;;;;;;;6.97;3.27;;;;;;;;;;4986741;28;20184;-56
2021/08/16 08:20:39;;;;;;;5.60;3.40;;;;;;;;;;4982557;28;20431;-57
2021/08/16 08:23:05;;;;;;;5.43;3.13;;;;;;;;;;4988106;28;20609;-57
2021/08/16 08:25:30;;;;;;;9.05;3.28;;;;;;;;;;4988425;28;20668;-57
2021/08/16 08:27:55;;;;;;;7.22;3.38;;;;;;;;;;4983169;28;20183;-57
2021/08/16 08:30:21;;;;;;;6.32;3.15;;;;;;;;;;4982664;28;20187;-57
2021/08/16 08:32:51;;;;;;;6.72;3.58;;;;;;;;;;4990473;28;20234;-58
2021/08/16 08:35:18;;;;;;;4.88;2.85;;;;;;;;;;4985414;28;20254;-57
2021/08/16 08:37:43;;;;;;;10.77;3.00;;;;;;;;;;4986839;28;20203;-57
2021/08/16 08:40:08;;;;;;;6.13;3.03;;;;;;;;;;4981652;28;21043;-56
2021/08/16 08:42:33;;;;;;;7.38;3.22;;;;;;;;;;4988571;28;20235;-57
2021/08/16 08:44:59;;;;;;;7.03;3.55;;;;;;;;;;4985785;28;20200;-57
2021/08/16 08:47:25;;;;;;;7.95;3.40;;;;;;;;;;4988858;28;20652;-57
2021/08/16 08:49:50;;;;;;;7.10;3.63;;;;;;;;;;4981659;28;20206;-57
2021/08/16 08:52:15;;;;;;;7.72;3.60;;;;;;;;;;4986117;28;20195;-59
2021/08/16 08:54:41;;;;;;;9.10;2.90;;;;;;;;;;4986886;28;20665;-57
2021/08/16 08:57:07;;;;;;;5.82;3.33;;;;;;;;;;4973728;28;21015;-57
2021/08/16 08:59:32;;;;;;;7.45;3.30;;;;;;;;;;4978081;28;20695;-56
2021/08/16 09:01:58;;;;;;;6.63;3.07;;;;;;;;;;4973941;28;20192;-57
2021/08/16 09:04:24;;;;;;;6.22;3.05;;;;;;;;;;4978798;28;20412;-57
2021/08/16 09:06:49;;;;;;;8.88;3.40;;;;;;;;;;4990310;28;20239;-56
2021/08/16 09:09:16;;;;;;;4.95;3.03;;;;;;;;;;4982970;28;20192;-57
2021/08/16 09:11:42;;;;;;;6.57;3.15;;;;;;;;;;4984271;28;20260;-55
2021/08/16 09:14:08;;;;;;;7.03;3.00;;;;;;;;;;4991866;28;20792;-56
2021/08/16 09:16:37;;;;;;;5.82;3.08;;;;;;;;;;4983569;28;20196;-58
2021/08/16 09:19:12;;;;;;;5.70;3.58;;;;;;;;;;4979881;28;20204;-56
2021/08/16 09:21:40;;;;;;;6.38;3.80;;;;;;;;;;4983333;28;20302;-57
2021/08/16 09:24:06;;;;;;;5.63;3.22;;;;;;;;;;4985014;28;20291;-58
2021/08/16 09:26:32;;;;;;;6.90;3.67;;;;;;;;;;4975293;28;20288;-58
2021/08/16 09:29:14;;;;;;;7.60;3.38;;;;;;;;;;4987790;28;20211;-57
2021/08/16 09:31:50;;;;;;;9.38;3.13;;;;;;;;;;4962734;28;20795;-57
2021/08/16 09:34:25;;;;;;;6.22;3.33;;;;;;;;;;4973319;28;20196;-58
2021/08/16 09:36:50;;;;;;;5.68;3.05;;;;;;;;;;4971624;28;20239;-58
2021/08/16 09:39:17;;;;;;;5.77;3.23;;;;;;;;;;4970460;28;20223;-58
2021/08/16 09:41:42;;;;;;;5.47;2.35;;;;;;;;;;4972375;28;20431;-57
2021/08/16 09:44:12;;;;;;;5.78;3.22;;;;;;;;;;4973669;28;20258;-59
2021/08/16 09:46:37;;;;;;;10.57;3.45;;;;;;;;;;4971820;28;20208;-58
2021/08/16 09:49:03;;;;;;;7.05;3.17;;;;;;;;;;4975248;28;20185;-57
2021/08/16 09:51:29;;;;;;;7.18;3.10;;;;;;;;;;4977574;28;20208;-58
2021/08/16 09:53:54;;;;;;;5.82;3.05;;;;;;;;;;4975545;28;20216;-57
2021/08/16 09:56:20;;;;;;;11.63;3.70;;;;;;;;;;4978645;28;20207;-59
2021/08/16 09:58:46;;;;;;;4.88;2.83;;;;;;;;;;4990486;28;20249;-58
2021/08/16 10:01:11;;;;;;;5.10;3.50;;;;;;;;;;4984398;28;20270;-56
2021/08/16 10:03:36;;;;;;;10.82;3.22;;;;;;;;;;4981374;28;20300;-57
2021/08/16 10:06:02;;;;;;;7.68;2.95;;;;;;;;;;4980665;28;20215;-58
2021/08/16 10:08:27;;;;;;;6.28;3.30;;;;;;;;;;4987367;28;20172;-58
2021/08/16 10:10:53;;;;;;;6.25;2.80;;;;;;;;;;4984364;28;20188;-56
2021/08/16 10:13:21;;;;;;;5.25;3.00;;;;;;;;;;4978481;28;20316;-56
2021/08/16 10:15:47;;;;;;;7.22;3.40;;;;;;;;;;4989328;28;20201;-58
2021/08/16 10:18:23;;;;;;;6.13;3.53;;;;;;;;;;4976566;28;20180;-56
2021/08/16 10:20:48;;;;;;;5.68;3.75;;;;;;;;;;4977104;28;20279;-57
2021/08/16 10:23:20;;;;;;;6.82;3.47;;;;;;;;;;4978287;28;20708;-56
2021/08/16 10:25:47;;;;;;;6.57;3.33;;;;;;;;;;4985722;28;20212;-58
2021/08/16 10:28:31;;;;;;;9.93;3.60;;;;;;;;;;4984814;28;20271;-57
2021/08/16 10:30:57;;;;;;;8.15;3.38;;;;;;;;;;4984916;28;20188;-58
2021/08/16 10:33:23;;;;;;;5.20;3.40;;;;;;;;;;4977001;28;20179;-57
2021/08/16 10:35:49;;;;;;;5.88;3.63;;;;;;;;;;4976689;28;20330;-58
2021/08/16 10:38:15;;;;;;;9.18;3.78;;;;;;;;;;4980030;28;20188;-60
2021/08/16 10:40:44;;;;;;;6.22;3.40;;;;;;;;;;4977879;28;20207;-58
2021/08/16 10:43:10;;;;;;;6.95;3.17;;;;;;;;;;4971818;28;20622;-60
2021/08/16 10:45:42;;;;;;;6.25;3.58;;;;;;;;;;4990233;28;20195;-59
2021/08/16 10:48:07;;;;;;;7.72;3.58;;;;;;;;;;4984483;28;20192;-59
2021/08/16 10:50:34;;;;;;;8.70;3.92;;;;;;;;;;4982853;28;20251;-60
2021/08/16 10:53:03;;;;;;;7.07;3.85;;;;;;;;;;4981586;28;20194;-59
2021/08/16 10:55:31;;;;;;;6.32;3.70;;;;;;;;;;4981792;28;20192;-58
2021/08/16 10:57:56;;;;;;;4.75;3.47;;;;;;;;;;4980227;28;20208;-60
2021/08/16 11:00:21;;;;;;;7.20;4.13;;;;;;;;;;4970928;28;20193;-59
2021/08/16 11:02:53;;;;;;;14.70;4.60;;;;;;;;;;4978577;28;20532;-59
2021/08/16 11:05:27;;;;;;;8.07;5.05;;;;;;;;;;4987019;28;20593;-59
2021/08/16 11:07:52;;;;;;;10.70;4.53;;;;;;;;;;4987498;28;20183;-60
2021/08/16 11:10:17;;;;;;;17.40;5.63;;;;;;;;;;4987337;28;20967;-59
2021/08/16 11:12:43;;;;;;;7.57;4.47;;;;;;;;;;4993825;28;20207;-59
2021/08/16 11:15:12;;;;;;;10.30;5.47;;;;;;;;;;4989158;28;20875;-57
2021/08/16 11:17:37;;;;;;;10.35;4.97;;;;;;;;;;4978495;28;20199;-58
2021/08/16 11:20:04;;;;;;;8.98;5.40;;;;;;;;;;4976396;28;20196;-57
2021/08/16 11:22:29;;;;;;;6.78;4.18;;;;;;;;;;4987095;28;20752;-59
2021/08/16 11:24:55;;;;;;;5.03;4.25;;;;;;;;;;4982277;28;20184;-58
2021/08/16 11:27:24;;;;;;;7.75;3.83;;;;;;;;;;4986670;28;20184;-59
2021/08/16 11:30:15;;;;;;;6.57;5.03;;;;;;;;;;4981902;28;20254;-58
2021/08/16 11:32:41;;;;;;;6.88;4.53;;;;;;;;;;4980134;28;20291;-59
2021/08/16 11:35:07;;;;;;;6.40;4.50;;;;;;;;;;4985900;28;20847;-59
2021/08/16 11:37:33;;;;;;;6.32;4.70;;;;;;;;;;4982864;28;20196;-58
2021/08/16 11:40:00;;;;;;;10.60;5.00;;;;;;;;;;4987616;28;20184;-58
2021/08/16 11:42:25;;;;;;;7.93;3.80;;;;;;;;;;4987371;28;20246;-59
2021/08/16 11:45:17;;;;;;;7.88;4.20;;;;;;;;;;4978562;28;20247;-57
2021/08/16 11:47:43;;;;;;;4.68;4.18;;;;;;;;;;4988322;28;20194;-57
2021/08/16 11:50:10;;;;;;;7.95;4.35;;;;;;;;;;4989502;28;20191;-57
2021/08/16 11:52:35;;;;;;;6.07;4.32;;;;;;;;;;4982162;28;20223;-59
2021/08/16 11:55:04;;;;;;;6.90;4.03;;;;;;;;;;4988991;28;20227;-58
2021/08/16 11:57:29;;;;;;;10.60;4.28;;;;;;;;;;4984855;28;20654;-59
2021/08/16 11:59:55;;;;;;;7.93;3.37;;;;;;;;;;4984494;28;20195;-59
2021/08/16 12:02:25;;;;;;;6.32;3.80;;;;;;;;;;4988943;28;20470;-58
2021/08/16 12:04:54;;;;;;;12.45;4.00;;;;;;;;;;4988193;28;20239;-59
2021/08/16 12:07:20;;;;;;;18.08;4.78;;;;;;;;;;4983131;28;20283;-59
2021/08/16 12:09:45;;;;;;;8.13;3.42;;;;;;;;;;4991798;28;20266;-59
2021/08/16 12:12:10;;;;;;;6.37;4.10;;;;;;;;;;4991911;28;20267;-57
2021/08/16 12:14:37;;;;;;;6.30;3.63;;;;;;;;;;4987500;28;20971;-59
2021/08/16 12:17:03;;;;;;;6.60;4.00;;;;;;;;;;4989180;28;20196;-59
2021/08/16 12:19:28;;;;;;;6.18;3.92;;;;;;;;;;4987387;28;20192;-59
2021/08/16 12:22:03;;;;;;;4.57;3.90;;;;;;;;;;4988667;28;20187;-58
2021/08/16 12:24:28;;;;;;;4.80;3.38;;;;;;;;;;4988140;28;20659;-59
2021/08/16 12:27:01;;;;;;;7.63;4.47;;;;;;;;;;4981682;28;20212;-59
2021/08/16 12:29:28;;;;;;;5.70;3.58;;;;;;;;;;4985018;28;20168;-58
2021/08/16 12:31:53;;;;;;;7.00;3.25;;;;;;;;;;4992185;28;20676;-58
2021/08/16 12:34:18;;;;;;;6.32;3.63;;;;;;;;;;4987390;28;20180;-57
2021/08/16 12:36:50;;;;;;;11.98;3.47;;;;;;;;;;4990860;28;20323;-58
2021/08/16 12:39:16;;;;;;;5.47;3.42;;;;;;;;;;4990842;28;21085;-57
2021/08/16 12:41:41;;;;;;;5.40;3.28;;;;;;;;;;4988143;28;20184;-58
2021/08/16 12:44:16;;;;;;;10.70;2.65;;;;;;;;;;4984427;28;20294;-59
2021/08/16 12:46:42;;;;;;;8.38;2.67;;;;;;;;;;4989435;28;20195;-56
2021/08/16 12:49:17;;;;;;;3.72;2.33;;;;;;;;;;4989904;28;20229;-57
2021/08/16 12:51:42;;;;;;;3.35;2.00;;;;;;;;;;4989190;28;20186;-58
2021/08/16 12:54:07;;;;;;;4.40;2.40;;;;;;;;;;4990167;28;20262;-57
2021/08/16 12:56:32;;;;;;;3.65;2.20;;;;;;;;;;4990712;28;20203;-57
2021/08/16 12:58:58;;;;;;;3.40;2.13;;;;;;;;;;4990045;28;20183;-57
2021/08/16 13:01:24;;;;;;;3.22;2.25;;;;;;;;;;4991196;28;20186;-57
2021/08/16 13:03:50;;;;;;;2.72;1.90;;;;;;;;;;4989812;28;20700;-57
2021/08/16 13:06:15;;;;;;;3.67;2.45;;;;;;;;;;4990726;28;20294;-58
2021/08/16 13:08:41;;;;;;;3.38;2.38;;;;;;;;;;4990526;28;20172;-58
2021/08/16 13:11:07;;;;;;;3.38;2.10;;;;;;;;;;4990520;28;20567;-58
2021/08/16 13:13:32;;;;;;;3.25;2.38;;;;;;;;;;4989388;28;20168;-57
2021/08/16 13:15:57;;;;;;;5.72;2.75;;;;;;;;;;4990928;28;20199;-58
2021/08/16 13:18:22;;;;;;;6.38;3.08;;;;;;;;;;4991182;28;20176;-58
2021/08/16 13:20:49;;;;;;;6.72;3.22;;;;;;;;;;4990572;28;20710;-57
2021/08/16 13:23:14;;;;;;;6.35;3.38;;;;;;;;;;4987608;28;20192;-58
2021/08/16 13:25:39;;;;;;;6.57;2.75;;;;;;;;;;4989645;28;20222;-57
2021/08/16 13:28:04;;;;;;;6.53;3.22;;;;;;;;;;4990962;28;20255;-58
2021/08/16 13:30:30;;;;;;;6.07;3.17;;;;;;;;;;4990583;28;20179;-57
2021/08/16 13:32:55;;;;;;;5.22;2.88;;;;;;;;;;4991528;28;20168;-56
2021/08/16 13:35:20;;;;;;;6.18;2.90;;;;;;;;;;4988892;28;20287;-57
2021/08/16 13:37:45;;;;;;;8.73;3.70;;;;;;;;;;4988930;28;20688;-57
2021/08/16 13:40:11;;;;;;;6.43;4.07;;;;;;;;;;4989581;28;20176;-57
2021/08/16 13:42:39;;;;;;;6.10;3.83;;;;;;;;;;4992635;28;20199;-57
2021/08/16 13:45:05;;;;;;;5.68;3.28;;;;;;;;;;4990209;28;20563;-57
2021/08/16 13:47:30;;;;;;;5.95;2.90;;;;;;;;;;4990089;28;20173;-58
2021/08/16 13:49:55;;;;;;;5.05;2.50;;;;;;;;;;4990122;28;20706;-58
2021/08/16 13:52:20;;;;;;;4.65;2.70;;;;;;;;;;4987033;28;20195;-57
2021/08/16 13:54:46;;;;;;;4.35;2.65;;;;;;;;;;4990314;28;20397;-58
2021/08/16 13:57:11;;;;;;;4.72;2.30;;;;;;;;;;4991444;28;20230;-57
2021/08/16 13:59:36;;;;;;;4.15;2.63;;;;;;;;;;4988650;28;20658;-58
2021/08/16 14:02:03;;;;;;;4.28;2.53;;;;;;;;;;4990784;28;20176;-56
2021/08/16 14:04:28;;;;;;;5.77;2.60;;;;;;;;;;4990047;28;20176;-57
2021/08/16 14:06:53;;;;;;;3.30;2.10;;;;;;;;;;4989714;28;20346;-58
2021/08/16 14:09:19;;;;;;;5.47;2.67;;;;;;;;;;4988786;28;20176;-56
2021/08/16 14:11:44;;;;;;;4.43;2.92;;;;;;;;;;4991450;28;20235;-57
2021/08/16 14:14:09;;;;;;;4.10;2.47;;;;;;;;;;4990286;28;20187;-57
2021/08/16 14:16:35;;;;;;;5.53;2.60;;;;;;;;;;4989508;28;20211;-57
2021/08/16 14:19:00;;;;;;;4.28;2.25;;;;;;;;;;4990499;28;20172;-56
2021/08/16 14:21:25;;;;;;;3.55;2.80;;;;;;;;;;4989808;28;20585;-57
2021/08/16 14:23:50;;;;;;;2.70;2.50;;;;;;;;;;4989133;28;20223;-58
2021/08/16 14:26:15;;;;;;;4.07;2.33;;;;;;;;;;4989632;28;20199;-58
2021/08/16 14:28:41;;;;;;;3.72;2.35;;;;;;;;;;4989269;28;20178;-58
2021/08/16 14:31:06;;;;;;;4.30;2.08;;;;;;;;;;4989878;28;20222;-58
2021/08/16 14:33:32;;;;;;;3.05;2.50;;;;;;;;;;4990329;28;20258;-56
2021/08/16 14:35:57;;;;;;;3.20;2.30;;;;;;;;;;4985378;28;20209;-57